createdAt,value
2023-01-31T00:03:20.074Z,7.29
2023-01-31T00:08:22.278Z,7.42
2023-01-31T00:13:24.427Z,7.47
2023-01-31T00:18:26.980Z,7.04
2023-01-31T00:23:29.104Z,6.75
2023-01-31T00:28:31.203Z,7.05
2023-01-31T00:33:35.180Z,6.66
2023-01-31T00:38:37.569Z,5.73
2023-01-31T00:43:39.685Z,5.83
2023-01-31T00:48:43.136Z,6.35
2023-01-31T00:53:45.598Z,6.64
2023-01-31T00:58:47.846Z,7.05
2023-01-31T01:03:50.759Z,7.32
2023-01-31T01:08:53.311Z,7.22
2023-01-31T01:13:56.308Z,7.07
2023-01-31T01:18:58.471Z,6.92
2023-01-31T01:24:02.685Z,7.19
2023-01-31T01:29:05.229Z,7.37
2023-01-31T01:34:12.304Z,7.50
2023-01-31T01:39:14.411Z,7.45
2023-01-31T01:44:52.817Z,7.60
2023-01-31T01:50:01.253Z,7.57
2023-01-31T01:55:44.470Z,7.66
2023-01-31T02:00:47.935Z,7.50
2023-01-31T02:06:00.733Z,7.27
2023-01-31T02:11:05.352Z,7.27
2023-01-31T02:16:07.851Z,7.31
2023-01-31T02:21:39.772Z,7.12
2023-01-31T02:27:00.256Z,7.13
2023-01-31T02:32:41.324Z,7.13
2023-01-31T02:38:04.874Z,7.21
2023-01-31T02:43:07.022Z,6.81
2023-01-31T02:48:29.403Z,6.88
2023-01-31T02:53:41.559Z,6.96
2023-01-31T02:58:50.542Z,6.94
2023-01-31T03:03:54.167Z,7.05
2023-01-31T03:09:10.777Z,7.24
2023-01-31T03:14:31.388Z,7.37
2023-01-31T03:20:00.772Z,7.22
2023-01-31T03:25:05.852Z,7.36
2023-01-31T03:30:14.383Z,7.50
2023-01-31T03:35:16.814Z,7.29
2023-01-31T03:40:28.016Z,7.34
2023-01-31T03:45:47.328Z,7.37
2023-01-31T03:50:59.241Z,7.42
2023-01-31T03:56:41.763Z,7.33
2023-01-31T04:01:49.136Z,7.41
2023-01-31T04:06:51.655Z,7.37
2023-01-31T04:11:53.904Z,7.29
2023-01-31T04:16:56.111Z,7.20
2023-01-31T04:21:58.215Z,6.80
2023-01-31T04:27:00.393Z,6.74
2023-01-31T04:32:02.785Z,7.13
2023-01-31T04:37:05.420Z,7.06
2023-01-31T04:42:07.530Z,6.99
2023-01-31T04:47:10.096Z,6.96
2023-01-31T04:52:12.299Z,6.29
2023-01-31T04:57:14.613Z,6.61
2023-01-31T05:02:18.247Z,6.77
2023-01-31T05:07:20.601Z,6.72
2023-01-31T05:12:22.843Z,6.50
2023-01-31T05:17:30.117Z,6.84
2023-01-31T05:22:32.519Z,6.25
2023-01-31T05:27:34.630Z,6.88
2023-01-31T05:32:37.713Z,6.84
2023-01-31T05:37:42.921Z,6.84
2023-01-31T05:42:45.159Z,6.94
2023-01-31T05:47:48.421Z,6.99
2023-01-31T05:52:52.584Z,6.98
2023-01-31T05:57:55.447Z,6.75
2023-01-31T06:02:59.719Z,6.61
2023-01-31T06:08:02.537Z,6.87
2023-01-31T06:13:04.724Z,6.83
2023-01-31T06:18:06.839Z,6.74
2023-01-31T06:23:09.047Z,6.98
2023-01-31T06:28:11.221Z,7.09
2023-01-31T06:33:13.545Z,7.01
2023-01-31T06:38:16.878Z,6.96
2023-01-31T06:43:19.202Z,6.73
2023-01-31T06:48:21.405Z,6.94
2023-01-31T06:53:23.566Z,6.86
2023-01-31T06:58:25.715Z,7.07
2023-01-31T07:03:28.027Z,7.07
2023-01-31T07:08:34.639Z,6.95
2023-01-31T07:13:37.932Z,7.13
2023-01-31T07:18:40.177Z,7.14
2023-01-31T07:23:42.769Z,7.09
2023-01-31T07:28:44.924Z,7.29
2023-01-31T07:33:47.097Z,7.52
2023-01-31T07:38:49.373Z,7.38
2023-01-31T07:43:51.918Z,7.39
2023-01-31T07:48:54.011Z,7.14
2023-01-31T07:53:57.403Z,7.24
2023-01-31T07:59:00.284Z,7.26
2023-01-31T08:04:19.576Z,7.78
2023-01-31T08:09:25.486Z,7.63
2023-01-31T08:14:28.628Z,7.78
2023-01-31T08:19:31.857Z,7.86
2023-01-31T08:24:34.110Z,7.94
2023-01-31T08:29:36.664Z,7.98
2023-01-31T08:34:38.845Z,8.15
2023-01-31T08:39:41.572Z,8.14
2023-01-31T08:44:44.195Z,8.30
2023-01-31T08:49:46.699Z,8.28
2023-01-31T08:54:48.919Z,8.28
2023-01-31T08:59:51.129Z,8.28
2023-01-31T09:04:53.282Z,8.69
2023-01-31T09:09:55.562Z,8.72
2023-01-31T09:14:57.843Z,8.93
2023-01-31T09:20:00.122Z,9.00
2023-01-31T09:25:03.199Z,8.95
2023-01-31T09:30:09.935Z,8.90
2023-01-31T09:35:14.321Z,9.11
2023-01-31T09:40:23.913Z,9.17
2023-01-31T09:45:35.119Z,8.98
2023-01-31T09:50:44.144Z,8.61
2023-01-31T09:55:57.535Z,8.81
2023-01-31T10:01:21.954Z,8.94
2023-01-31T10:06:33.302Z,8.83
2023-01-31T10:11:42.552Z,8.93
2023-01-31T10:16:55.070Z,9.08
2023-01-31T10:22:05.295Z,9.01
2023-01-31T10:27:12.442Z,9.41
2023-01-31T10:32:46.837Z,10.01
2023-01-31T10:37:56.895Z,10.24
2023-01-31T10:43:05.336Z,10.26
2023-01-31T10:48:18.641Z,10.07
2023-01-31T10:53:50.857Z,9.58
2023-01-31T10:58:53.635Z,10.04
2023-01-31T11:03:57.521Z,10.22
2023-01-31T11:09:03.890Z,10.33
2023-01-31T11:14:08.885Z,10.03
2023-01-31T11:19:21.513Z,10.19
2023-01-31T11:24:26.051Z,10.22
2023-01-31T11:29:41.635Z,9.87
2023-01-31T11:35:04.874Z,9.93
2023-01-31T11:40:25.641Z,10.03
2023-01-31T11:45:39.620Z,10.18
2023-01-31T11:50:46.279Z,10.15
2023-01-31T11:55:50.681Z,10.72
2023-01-31T12:00:57.253Z,10.80
2023-01-31T12:06:05.497Z,10.98
2023-01-31T12:11:30.798Z,10.74
2023-01-31T12:16:35.127Z,11.06
2023-01-31T12:21:58.234Z,11.16
2023-01-31T12:27:13.728Z,11.17
2023-01-31T12:32:34.627Z,11.11
2023-01-31T12:37:46.698Z,11.32
2023-01-31T12:43:03.102Z,11.28
2023-01-31T12:48:26.157Z,11.32
2023-01-31T12:53:51.656Z,11.40
2023-01-31T12:59:29.834Z,11.29
2023-01-31T13:04:38.053Z,11.46
2023-01-31T13:09:40.464Z,11.49
2023-01-31T13:15:04.449Z,11.23
2023-01-31T13:20:12.337Z,11.35
2023-01-31T13:25:21.518Z,10.93
2023-01-31T13:30:37.464Z,10.79
2023-01-31T13:35:44.243Z,10.96
2023-01-31T13:40:53.072Z,10.67
2023-01-31T13:46:02.874Z,10.62
2023-01-31T13:51:31.746Z,10.26
2023-01-31T13:56:37.024Z,10.26
2023-01-31T14:01:48.978Z,10.25
2023-01-31T14:06:54.726Z,10.40
2023-01-31T14:12:23.072Z,9.90
2023-01-31T14:17:28.267Z,9.78
2023-01-31T14:22:40.399Z,9.83
2023-01-31T14:27:51.648Z,9.83
2023-01-31T14:33:07.291Z,9.97
2023-01-31T14:38:23.376Z,10.24
2023-01-31T14:43:34.072Z,9.99
2023-01-31T14:48:48.442Z,10.23
2023-01-31T14:54:12.018Z,10.24
2023-01-31T14:59:34.626Z,10.58
2023-01-31T15:04:37.115Z,10.75
2023-01-31T15:09:40.280Z,10.91
2023-01-31T15:14:49.449Z,10.78
2023-01-31T15:19:58.844Z,10.85
2023-01-31T15:25:07.433Z,10.85
2023-01-31T15:30:18.999Z,10.99
2023-01-31T15:35:34.573Z,10.97
2023-01-31T15:40:36.790Z,10.78
2023-01-31T15:45:39.229Z,10.46
2023-01-31T15:50:59.412Z,10.52
2023-01-31T15:56:03.914Z,10.57
2023-01-31T16:01:06.954Z,10.50
2023-01-31T16:06:27.611Z,10.41
2023-01-31T16:11:34.396Z,10.35
2023-01-31T16:16:37.715Z,10.04
2023-01-31T16:21:43.329Z,9.78
2023-01-31T16:27:08.938Z,9.70
2023-01-31T16:32:25.266Z,9.81
2023-01-31T16:37:42.243Z,9.94
2023-01-31T16:42:44.667Z,9.28
2023-01-31T16:47:52.170Z,8.86
2023-01-31T16:53:31.183Z,8.62
2023-01-31T16:58:54.835Z,9.21
2023-01-31T17:04:12.107Z,9.46
2023-01-31T17:09:19.809Z,9.43
2023-01-31T17:14:22.131Z,9.34
2023-01-31T17:19:24.740Z,9.25
2023-01-31T17:24:27.279Z,9.66
2023-01-31T17:29:29.850Z,9.45
2023-01-31T17:34:32.188Z,9.48
2023-01-31T17:39:35.358Z,9.45
2023-01-31T17:44:37.597Z,9.32
2023-01-31T17:49:39.991Z,8.99
2023-01-31T17:54:42.440Z,9.03
2023-01-31T17:59:44.806Z,9.10
2023-01-31T18:04:47.172Z,8.84
2023-01-31T18:09:50.183Z,8.55
2023-01-31T18:14:52.410Z,8.88
2023-01-31T18:19:55.871Z,9.05
2023-01-31T18:24:58.066Z,8.95
2023-01-31T18:30:00.221Z,9.07
2023-01-31T18:35:02.643Z,8.60
2023-01-31T18:40:05.461Z,8.16
2023-01-31T18:45:08.161Z,8.16
2023-01-31T18:50:10.967Z,8.49
2023-01-31T18:55:13.154Z,8.52
2023-01-31T19:00:15.960Z,8.62
2023-01-31T19:05:19.922Z,8.58
2023-01-31T19:10:22.363Z,8.64
2023-01-31T19:15:24.567Z,8.49
2023-01-31T19:20:27.052Z,8.51
2023-01-31T19:25:29.236Z,8.61
2023-01-31T19:30:32.058Z,8.63
2023-01-31T19:35:34.356Z,8.40
2023-01-31T19:40:36.647Z,7.60
2023-01-31T19:45:38.887Z,7.60
2023-01-31T19:50:42.138Z,6.67
2023-01-31T19:55:44.360Z,6.74
2023-01-31T20:00:48.254Z,7.07
2023-01-31T20:05:50.492Z,6.72
2023-01-31T20:10:57.985Z,7.13
2023-01-31T20:16:03.748Z,7.19
2023-01-31T20:21:06.654Z,6.93
2023-01-31T20:26:10.379Z,7.05
2023-01-31T20:31:14.661Z,6.97
2023-01-31T20:36:16.931Z,7.21
2023-01-31T20:41:19.667Z,7.27
2023-01-31T20:46:22.201Z,7.39
2023-01-31T20:51:24.550Z,7.39
2023-01-31T20:56:26.919Z,7.11
2023-01-31T21:01:29.186Z,7.25
2023-01-31T21:06:31.504Z,7.21
2023-01-31T21:11:33.630Z,7.21
2023-01-31T21:16:36.142Z,7.27
2023-01-31T21:21:38.255Z,7.31
2023-01-31T21:26:40.529Z,7.44
2023-01-31T21:31:42.814Z,7.24
2023-01-31T21:36:45.917Z,7.03
2023-01-31T21:42:06.846Z,7.25
2023-01-31T21:47:09.208Z,7.34
2023-01-31T21:52:11.431Z,7.34
2023-01-31T21:57:13.593Z,7.21
2023-01-31T22:02:15.901Z,7.38
2023-01-31T22:07:18.074Z,7.37
2023-01-31T22:12:20.192Z,7.45
2023-01-31T22:17:22.371Z,7.43
2023-01-31T22:22:24.568Z,7.63
2023-01-31T22:27:26.711Z,7.51
2023-01-31T22:32:28.832Z,7.68
2023-01-31T22:37:30.932Z,7.47
2023-01-31T22:42:33.215Z,7.39
2023-01-31T22:47:35.378Z,7.42
2023-01-31T22:52:37.513Z,7.46
2023-01-31T22:57:39.607Z,7.23
2023-01-31T23:02:41.803Z,7.18
2023-01-31T23:07:43.947Z,7.17
2023-01-31T23:12:46.117Z,7.08
2023-01-31T23:17:48.296Z,6.59
2023-01-31T23:22:55.619Z,6.84
2023-01-31T23:27:59.107Z,7.10
2023-01-31T23:33:01.402Z,6.97
2023-01-31T23:38:03.735Z,6.68
2023-01-31T23:43:05.915Z,6.94
2023-01-31T23:48:08.921Z,6.10
2023-01-31T23:53:11.191Z,6.10
2023-01-31T23:58:13.299Z,6.40
